sensor_id;sensor_type;location;lat;lon;timestamp;temperature;humidity
75113;DHT22;63692;47.338;8.520;2023-07-09T04:34:39;19.30;99.90
75113;DHT22;63692;47.338;8.520;2023-07-09T04:37:06;19.30;99.90
75113;DHT22;63692;47.338;8.520;2023-07-09T04:39:32;19.40;99.90
75113;DHT22;63692;47.338;8.520;2023-07-09T04:41:58;19.40;99.90
75113;DHT22;63692;47.338;8.520;2023-07-09T04:44:24;19.50;99.90
75113;DHT22;63692;47.338;8.520;2023-07-09T04:46:50;19.50;99.90
75113;DHT22;63692;47.338;8.520;2023-07-09T04:49:15;19.50;99.90
75113;DHT22;63692;47.338;8.520;2023-07-09T04:51:41;19.40;99.90
75113;DHT22;63692;47.338;8.520;2023-07-09T04:54:06;19.40;99.90
75113;DHT22;63692;47.338;8.520;2023-07-09T04:56:32;19.40;99.90
75113;DHT22;63692;47.338;8.520;2023-07-09T04:58:58;19.30;99.90
75113;DHT22;63692;47.338;8.520;2023-07-09T05:01:23;19.30;99.90
75113;DHT22;63692;47.338;8.520;2023-07-09T05:03:55;19.30;99.90
75113;DHT22;63692;47.338;8.520;2023-07-09T05:06:23;19.30;99.90
75113;DHT22;63692;47.338;8.520;2023-07-09T05:08:48;19.40;99.90
75113;DHT22;63692;47.338;8.520;2023-07-09T05:11:14;19.40;99.90
75113;DHT22;63692;47.338;8.520;2023-07-09T05:13:40;19.50;99.90
75113;DHT22;63692;47.338;8.520;2023-07-09T05:16:06;19.50;99.90
75113;DHT22;63692;47.338;8.520;2023-07-09T05:18:32;19.50;99.90
75113;DHT22;63692;47.338;8.520;2023-07-09T05:20:57;19.60;99.90
75113;DHT22;63692;47.338;8.520;2023-07-09T05:23:25;19.60;99.90
75113;DHT22;63692;47.338;8.520;2023-07-09T05:25:59;19.70;99.90
75113;DHT22;63692;47.338;8.520;2023-07-09T05:28:25;19.70;99.90
75113;DHT22;63692;47.338;8.520;2023-07-09T05:35:54;20.00;99.90
75113;DHT22;63692;47.338;8.520;2023-07-09T05:38:19;20.10;99.90
75113;DHT22;63692;47.338;8.520;2023-07-09T05:40:45;20.20;99.90
75113;DHT22;63692;47.338;8.520;2023-07-09T05:43:10;20.20;99.90
75113;DHT22;63692;47.338;8.520;2023-07-09T05:45:39;20.20;99.90
75113;DHT22;63692;47.338;8.520;2023-07-09T05:48:04;20.40;99.90
75113;DHT22;63692;47.338;8.520;2023-07-09T05:50:33;20.60;99.90
75113;DHT22;63692;47.338;8.520;2023-07-09T05:52:58;20.60;99.90
75113;DHT22;63692;47.338;8.520;2023-07-09T05:55:24;20.70;99.90
75113;DHT22;63692;47.338;8.520;2023-07-09T05:57:50;20.80;99.90
75113;DHT22;63692;47.338;8.520;2023-07-09T06:00:16;20.80;99.90
75113;DHT22;63692;47.338;8.520;2023-07-09T06:02:42;20.90;99.90
75113;DHT22;63692;47.338;8.520;2023-07-09T06:05:10;20.90;99.90
75113;DHT22;63692;47.338;8.520;2023-07-09T06:10:08;20.90;99.90
75113;DHT22;63692;47.338;8.520;2023-07-09T06:12:34;20.90;99.90
75113;DHT22;63692;47.338;8.520;2023-07-09T06:15:00;20.90;99.90
75113;DHT22;63692;47.338;8.520;2023-07-09T06:17:25;21.10;99.90
75113;DHT22;63692;47.338;8.520;2023-07-09T06:19:51;21.10;99.90
75113;DHT22;63692;47.338;8.520;2023-07-09T06:22:17;21.10;99.90
75113;DHT22;63692;47.338;8.520;2023-07-09T06:27:10;21.20;99.90
75113;DHT22;63692;47.338;8.520;2023-07-09T06:29:47;21.30;99.90
75113;DHT22;63692;47.338;8.520;2023-07-09T06:35:25;21.50;99.90
75113;DHT22;63692;47.338;8.520;2023-07-09T06:37:57;21.60;99.90
75113;DHT22;63692;47.338;8.520;2023-07-09T06:40:26;21.70;99.90
75113;DHT22;63692;47.338;8.520;2023-07-09T06:43:26;21.80;99.90
75113;DHT22;63692;47.338;8.520;2023-07-09T06:45:56;21.80;99.90
75113;DHT22;63692;47.338;8.520;2023-07-09T06:48:28;21.90;99.90
75113;DHT22;63692;47.338;8.520;2023-07-09T06:50:55;22.00;99.90
75113;DHT22;63692;47.338;8.520;2023-07-09T06:53:22;22.00;99.90
75113;DHT22;63692;47.338;8.520;2023-07-09T06:55:48;22.10;99.90
75113;DHT22;63692;47.338;8.520;2023-07-09T06:58:21;22.10;99.90
75113;DHT22;63692;47.338;8.520;2023-07-09T07:00:48;22.20;99.90
75113;DHT22;63692;47.338;8.520;2023-07-09T07:03:15;22.30;99.90
75113;DHT22;63692;47.338;8.520;2023-07-09T07:05:45;22.30;99.90
75113;DHT22;63692;47.338;8.520;2023-07-09T07:08:14;22.40;99.90
75113;DHT22;63692;47.338;8.520;2023-07-09T07:10:40;22.40;99.90
75113;DHT22;63692;47.338;8.520;2023-07-09T07:13:06;22.40;99.90
75113;DHT22;63692;47.338;8.520;2023-07-09T07:42:49;23.10;99.90
75113;DHT22;63692;47.338;8.520;2023-07-09T07:45:15;23.10;99.90
75113;DHT22;63692;47.338;8.520;2023-07-09T07:47:41;23.10;99.90
75113;DHT22;63692;47.338;8.520;2023-07-09T07:50:07;23.10;99.90
75113;DHT22;63692;47.338;8.520;2023-07-09T07:52:33;23.10;99.90
75113;DHT22;63692;47.338;8.520;2023-07-09T07:55:04;23.20;99.90
75113;DHT22;63692;47.338;8.520;2023-07-09T07:57:30;23.30;99.90
75113;DHT22;63692;47.338;8.520;2023-07-09T07:59:56;23.50;99.90
75113;DHT22;63692;47.338;8.520;2023-07-09T08:02:23;23.60;99.90
75113;DHT22;63692;47.338;8.520;2023-07-09T08:04:49;23.70;99.90
75113;DHT22;63692;47.338;8.520;2023-07-09T08:07:17;23.80;99.80
75113;DHT22;63692;47.338;8.520;2023-07-09T08:09:44;23.80;99.90
75113;DHT22;63692;47.338;8.520;2023-07-09T08:12:11;23.70;99.80
75113;DHT22;63692;47.338;8.520;2023-07-09T08:14:38;23.70;99.30
75113;DHT22;63692;47.338;8.520;2023-07-09T08:17:04;23.70;99.60
75113;DHT22;63692;47.338;8.520;2023-07-09T08:19:31;23.70;99.70
75113;DHT22;63692;47.338;8.520;2023-07-09T08:21:56;23.70;99.80
75113;DHT22;63692;47.338;8.520;2023-07-09T08:24:22;23.70;99.80
75113;DHT22;63692;47.338;8.520;2023-07-09T08:26:47;23.80;99.90
75113;DHT22;63692;47.338;8.520;2023-07-09T08:29:13;23.80;99.80
75113;DHT22;63692;47.338;8.520;2023-07-09T08:31:39;23.90;99.50
75113;DHT22;63692;47.338;8.520;2023-07-09T08:34:07;23.90;98.80
75113;DHT22;63692;47.338;8.520;2023-07-09T08:36:34;24.00;99.10
75113;DHT22;63692;47.338;8.520;2023-07-09T08:39:02;24.00;98.40
75113;DHT22;63692;47.338;8.520;2023-07-09T08:41:39;24.00;98.10
75113;DHT22;63692;47.338;8.520;2023-07-09T08:44:14;24.00;97.80
75113;DHT22;63692;47.338;8.520;2023-07-09T08:49:21;24.40;95.60
75113;DHT22;63692;47.338;8.520;2023-07-09T08:51:49;24.40;96.30
75113;DHT22;63692;47.338;8.520;2023-07-09T08:54:34;24.40;96.70
75113;DHT22;63692;47.338;8.520;2023-07-09T08:57:14;24.40;95.90
75113;DHT22;63692;47.338;8.520;2023-07-09T08:59:41;24.50;95.60
75113;DHT22;63692;47.338;8.520;2023-07-09T09:02:16;24.70;95.00
75113;DHT22;63692;47.338;8.520;2023-07-09T09:04:47;24.90;94.70
75113;DHT22;63692;47.338;8.520;2023-07-09T09:07:20;24.80;95.20
75113;DHT22;63692;47.338;8.520;2023-07-09T09:10:01;24.80;95.30
75113;DHT22;63692;47.338;8.520;2023-07-09T09:12:36;24.80;95.50
75113;DHT22;63692;47.338;8.520;2023-07-09T09:15:14;24.80;95.20
75113;DHT22;63692;47.338;8.520;2023-07-09T09:17:41;24.90;94.40
75113;DHT22;63692;47.338;8.520;2023-07-09T09:20:29;25.10;94.50
75113;DHT22;63692;47.338;8.520;2023-07-09T09:30:32;25.00;94.60
75113;DHT22;63692;47.338;8.520;2023-07-09T09:33:09;25.10;93.90
75113;DHT22;63692;47.338;8.520;2023-07-09T09:35:40;25.10;94.20
75113;DHT22;63692;47.338;8.520;2023-07-09T09:38:17;25.10;94.20
75113;DHT22;63692;47.338;8.520;2023-07-09T09:40:43;25.10;93.80
75113;DHT22;63692;47.338;8.520;2023-07-09T09:43:14;25.10;93.70
75113;DHT22;63692;47.338;8.520;2023-07-09T09:45:43;25.10;94.00
75113;DHT22;63692;47.338;8.520;2023-07-09T09:48:19;25.20;92.70
75113;DHT22;63692;47.338;8.520;2023-07-09T09:50:46;25.20;93.80
75113;DHT22;63692;47.338;8.520;2023-07-09T09:53:22;25.30;92.30
75113;DHT22;63692;47.338;8.520;2023-07-09T09:55:52;25.40;92.70
75113;DHT22;63692;47.338;8.520;2023-07-09T09:58:19;25.40;92.80
75113;DHT22;63692;47.338;8.520;2023-07-09T10:00:50;25.50;91.90
75113;DHT22;63692;47.338;8.520;2023-07-09T10:05:58;25.50;92.60
75113;DHT22;63692;47.338;8.520;2023-07-09T10:08:46;25.40;92.30
75113;DHT22;63692;47.338;8.520;2023-07-09T10:11:53;25.40;92.30
75113;DHT22;63692;47.338;8.520;2023-07-09T10:14:25;25.40;91.90
75113;DHT22;63692;47.338;8.520;2023-07-09T10:17:41;25.40;91.90
75113;DHT22;63692;47.338;8.520;2023-07-09T10:19:59;25.40;92.20
75113;DHT22;63692;47.338;8.520;2023-07-09T10:25:29;25.50;91.80
75113;DHT22;63692;47.338;8.520;2023-07-09T10:28:32;25.50;91.50
75113;DHT22;63692;47.338;8.520;2023-07-09T10:31:14;25.50;91.10
75113;DHT22;63692;47.338;8.520;2023-07-09T10:34:12;25.60;89.30
75113;DHT22;63692;47.338;8.520;2023-07-09T10:36:48;25.60;90.70
75113;DHT22;63692;47.338;8.520;2023-07-09T10:39:26;25.70;90.50
75113;DHT22;63692;47.338;8.520;2023-07-09T10:41:57;25.70;90.60
75113;DHT22;63692;47.338;8.520;2023-07-09T10:44:29;25.70;90.00
75113;DHT22;63692;47.338;8.520;2023-07-09T10:54:57;26.00;85.70
75113;DHT22;63692;47.338;8.520;2023-07-09T10:59:54;26.00;85.70
75113;DHT22;63692;47.338;8.520;2023-07-09T11:02:34;26.10;87.70
75113;DHT22;63692;47.338;8.520;2023-07-09T11:05:05;26.30;84.80
75113;DHT22;63692;47.338;8.520;2023-07-09T11:07:48;26.30;79.10
75113;DHT22;63692;47.338;8.520;2023-07-09T11:10:26;26.30;81.00
75113;DHT22;63692;47.338;8.520;2023-07-09T11:13:05;26.50;77.30
75113;DHT22;63692;47.338;8.520;2023-07-09T11:15:43;26.60;79.20
75113;DHT22;63692;47.338;8.520;2023-07-09T11:18:16;26.80;76.00
75113;DHT22;63692;47.338;8.520;2023-07-09T11:20:45;27.00;74.90
75113;DHT22;63692;47.338;8.520;2023-07-09T11:23:18;27.00;79.50
75113;DHT22;63692;47.338;8.520;2023-07-09T11:25:47;27.10;77.00
75113;DHT22;63692;47.338;8.520;2023-07-09T11:28:13;27.00;76.90
75113;DHT22;63692;47.338;8.520;2023-07-09T11:30:54;27.00;77.30
75113;DHT22;63692;47.338;8.520;2023-07-09T11:33:29;27.30;76.10
75113;DHT22;63692;47.338;8.520;2023-07-09T11:43:47;27.40;78.20
75113;DHT22;63692;47.338;8.520;2023-07-09T11:46:25;27.20;78.40
75113;DHT22;63692;47.338;8.520;2023-07-09T12:04:17;28.10;73.10
75113;DHT22;63692;47.338;8.520;2023-07-09T12:06:45;28.10;72.20
75113;DHT22;63692;47.338;8.520;2023-07-09T12:09:18;28.10;74.30
75113;DHT22;63692;47.338;8.520;2023-07-09T12:11:47;28.10;68.40
75113;DHT22;63692;47.338;8.520;2023-07-09T12:14:16;28.30;64.80
75113;DHT22;63692;47.338;8.520;2023-07-09T12:16:44;28.30;64.10
75113;DHT22;63692;47.338;8.520;2023-07-09T12:19:17;28.50;63.70
75113;DHT22;63692;47.338;8.520;2023-07-09T12:21:46;28.20;70.00
75113;DHT22;63692;47.338;8.520;2023-07-09T12:26:56;28.00;71.40
75113;DHT22;63692;47.338;8.520;2023-07-09T12:29:34;27.90;69.00
75113;DHT22;63692;47.338;8.520;2023-07-09T12:32:06;28.10;69.50
75113;DHT22;63692;47.338;8.520;2023-07-09T12:34:35;28.40;61.20
75113;DHT22;63692;47.338;8.520;2023-07-09T12:37:01;28.30;68.00
75113;DHT22;63692;47.338;8.520;2023-07-09T12:39:29;28.20;68.90
75113;DHT22;63692;47.338;8.520;2023-07-09T12:42:00;28.10;67.90
75113;DHT22;63692;47.338;8.520;2023-07-09T12:44:29;28.10;65.60
75113;DHT22;63692;47.338;8.520;2023-07-09T12:46:56;28.10;68.20
75113;DHT22;63692;47.338;8.520;2023-07-09T12:49:26;28.00;68.60
75113;DHT22;63692;47.338;8.520;2023-07-09T12:52:01;27.90;68.80
75113;DHT22;63692;47.338;8.520;2023-07-09T12:54:31;27.80;68.70
75113;DHT22;63692;47.338;8.520;2023-07-09T12:56:59;27.80;67.40
75113;DHT22;63692;47.338;8.520;2023-07-09T12:59:27;27.90;68.10
75113;DHT22;63692;47.338;8.520;2023-07-09T13:02:20;27.90;68.70
75113;DHT22;63692;47.338;8.520;2023-07-09T13:04:47;27.90;69.20
75113;DHT22;63692;47.338;8.520;2023-07-09T13:07:32;27.80;69.20
75113;DHT22;63692;47.338;8.520;2023-07-09T13:10:06;28.10;63.80
75113;DHT22;63692;47.338;8.520;2023-07-09T13:12:33;28.20;61.90
75113;DHT22;63692;47.338;8.520;2023-07-09T13:14:59;28.30;60.80
75113;DHT22;63692;47.338;8.520;2023-07-09T13:17:28;28.30;66.00
75113;DHT22;63692;47.338;8.520;2023-07-09T13:27:40;29.00;60.20
75113;DHT22;63692;47.338;8.520;2023-07-09T13:30:08;29.00;58.70
75113;DHT22;63692;47.338;8.520;2023-07-09T13:32:34;28.90;63.20
75113;DHT22;63692;47.338;8.520;2023-07-09T13:35:00;28.70;64.10
75113;DHT22;63692;47.338;8.520;2023-07-09T13:37:25;28.60;64.40
75113;DHT22;63692;47.338;8.520;2023-07-09T13:39:51;28.50;63.20
75113;DHT22;63692;47.338;8.520;2023-07-09T13:42:17;28.50;63.90
75113;DHT22;63692;47.338;8.520;2023-07-09T13:44:45;28.40;61.10
75113;DHT22;63692;47.338;8.520;2023-07-09T13:47:16;28.50;62.60
75113;DHT22;63692;47.338;8.520;2023-07-09T13:49:43;28.40;61.90
75113;DHT22;63692;47.338;8.520;2023-07-09T13:52:20;28.50;61.70
75113;DHT22;63692;47.338;8.520;2023-07-09T13:54:47;28.50;62.60
75113;DHT22;63692;47.338;8.520;2023-07-09T13:57:18;28.60;59.90
75113;DHT22;63692;47.338;8.520;2023-07-09T13:59:45;28.60;62.50
75113;DHT22;63692;47.338;8.520;2023-07-09T14:04:48;29.10;56.00
75113;DHT22;63692;47.338;8.520;2023-07-09T14:07:34;29.50;55.00
75113;DHT22;63692;47.338;8.520;2023-07-09T14:10:02;30.00;54.20
75113;DHT22;63692;47.338;8.520;2023-07-09T14:12:28;30.30;51.20
75113;DHT22;63692;47.338;8.520;2023-07-09T14:14:57;30.70;49.70
75113;DHT22;63692;47.338;8.520;2023-07-09T14:17:24;31.00;51.10
75113;DHT22;63692;47.338;8.520;2023-07-09T14:19:54;31.10;50.50
75113;DHT22;63692;47.338;8.520;2023-07-09T14:22:35;31.10;50.60
75113;DHT22;63692;47.338;8.520;2023-07-09T14:25:03;31.20;49.50
75113;DHT22;63692;47.338;8.520;2023-07-09T14:27:29;31.40;47.50
75113;DHT22;63692;47.338;8.520;2023-07-09T14:29:54;31.50;49.40
75113;DHT22;63692;47.338;8.520;2023-07-09T14:32:38;31.60;50.20
75113;DHT22;63692;47.338;8.520;2023-07-09T14:37:34;31.70;46.40
75113;DHT22;63692;47.338;8.520;2023-07-09T14:39:59;31.90;45.30
75113;DHT22;63692;47.338;8.520;2023-07-09T14:57:41;32.30;46.70
75113;DHT22;63692;47.338;8.520;2023-07-09T15:00:13;32.30;45.90
75113;DHT22;63692;47.338;8.520;2023-07-09T15:02:41;32.40;44.10
75113;DHT22;63692;47.338;8.520;2023-07-09T15:05:19;32.60;41.90
75113;DHT22;63692;47.338;8.520;2023-07-09T15:07:46;32.80;42.10
75113;DHT22;63692;47.338;8.520;2023-07-09T15:10:17;32.80;45.30
75113;DHT22;63692;47.338;8.520;2023-07-09T15:12:44;32.70;45.00
75113;DHT22;63692;47.338;8.520;2023-07-09T15:17:39;32.70;43.00
75113;DHT22;63692;47.338;8.520;2023-07-09T15:20:05;32.70;42.70
75113;DHT22;63692;47.338;8.520;2023-07-09T15:22:33;32.90;42.70
75113;DHT22;63692;47.338;8.520;2023-07-09T15:25:00;32.90;42.80
75113;DHT22;63692;47.338;8.520;2023-07-09T15:27:26;32.90;42.30
75113;DHT22;63692;47.338;8.520;2023-07-09T15:29:52;32.90;44.30
75113;DHT22;63692;47.338;8.520;2023-07-09T15:32:17;33.00;42.90
75113;DHT22;63692;47.338;8.520;2023-07-09T15:34:43;32.90;44.80
75113;DHT22;63692;47.338;8.520;2023-07-09T15:37:12;32.90;41.60
75113;DHT22;63692;47.338;8.520;2023-07-09T15:39:39;33.00;42.60
75113;DHT22;63692;47.338;8.520;2023-07-09T15:42:10;33.00;42.90
75113;DHT22;63692;47.338;8.520;2023-07-09T15:44:36;33.10;41.80
75113;DHT22;63692;47.338;8.520;2023-07-09T15:47:05;33.10;40.90
75113;DHT22;63692;47.338;8.520;2023-07-09T15:49:45;33.10;42.20
75113;DHT22;63692;47.338;8.520;2023-07-09T15:52:11;32.90;43.20
75113;DHT22;63692;47.338;8.520;2023-07-09T15:54:36;32.90;41.40
75113;DHT22;63692;47.338;8.520;2023-07-09T15:57:04;33.00;40.10
75113;DHT22;63692;47.338;8.520;2023-07-09T15:59:34;33.00;42.90
75113;DHT22;63692;47.338;8.520;2023-07-09T16:02:01;33.00;47.00
75113;DHT22;63692;47.338;8.520;2023-07-09T16:04:28;33.00;48.60
75113;DHT22;63692;47.338;8.520;2023-07-09T16:06:54;33.10;49.00
75113;DHT22;63692;47.338;8.520;2023-07-09T16:09:20;33.10;48.30
75113;DHT22;63692;47.338;8.520;2023-07-09T16:11:51;33.00;50.80
75113;DHT22;63692;47.338;8.520;2023-07-09T16:14:22;33.00;51.30
75113;DHT22;63692;47.338;8.520;2023-07-09T16:16:49;32.90;48.00
75113;DHT22;63692;47.338;8.520;2023-07-09T16:19:18;32.80;48.60
75113;DHT22;63692;47.338;8.520;2023-07-09T16:21:44;33.10;49.40
75113;DHT22;63692;47.338;8.520;2023-07-09T16:24:36;33.70;48.70
75113;DHT22;63692;47.338;8.520;2023-07-09T16:27:03;34.40;48.60
75113;DHT22;63692;47.338;8.520;2023-07-09T16:29:32;34.70;52.50
75113;DHT22;63692;47.338;8.520;2023-07-09T16:31:59;34.60;54.10
75113;DHT22;63692;47.338;8.520;2023-07-09T16:34:26;34.50;52.20
75113;DHT22;63692;47.338;8.520;2023-07-09T16:36:52;34.20;51.30
75113;DHT22;63692;47.338;8.520;2023-07-09T16:39:35;33.50;51.40
75113;DHT22;63692;47.338;8.520;2023-07-09T16:42:09;32.80;52.70
75113;DHT22;63692;47.338;8.520;2023-07-09T17:02:50;31.00;61.10
75113;DHT22;63692;47.338;8.520;2023-07-09T17:05:16;30.90;62.20
75113;DHT22;63692;47.338;8.520;2023-07-09T17:17:43;30.50;59.20
75113;DHT22;63692;47.338;8.520;2023-07-09T17:36:25;30.20;63.20
75113;DHT22;63692;47.338;8.520;2023-07-09T17:38:51;30.20;65.00
75113;DHT22;63692;47.338;8.520;2023-07-09T17:41:16;30.20;69.10
75113;DHT22;63692;47.338;8.520;2023-07-09T17:43:42;30.20;71.40
75113;DHT22;63692;47.338;8.520;2023-07-09T17:46:10;30.10;71.60
75113;DHT22;63692;47.338;8.520;2023-07-09T17:48:36;30.10;74.50
75113;DHT22;63692;47.338;8.520;2023-07-09T17:51:06;30.00;75.20
75113;DHT22;63692;47.338;8.520;2023-07-09T17:53:33;29.90;72.70
75113;DHT22;63692;47.338;8.520;2023-07-09T17:55:59;29.80;72.10
75113;DHT22;63692;47.338;8.520;2023-07-09T17:58:39;29.70;73.00
75113;DHT22;63692;47.338;8.520;2023-07-09T18:01:07;29.60;66.10
75113;DHT22;63692;47.338;8.520;2023-07-09T18:03:33;29.50;60.80
75113;DHT22;63692;47.338;8.520;2023-07-09T18:05:58;29.40;62.10
75113;DHT22;63692;47.338;8.520;2023-07-09T18:08:24;29.30;60.20
75113;DHT22;63692;47.338;8.520;2023-07-09T18:10:51;29.20;62.40
75113;DHT22;63692;47.338;8.520;2023-07-09T18:13:19;29.10;62.70
75113;DHT22;63692;47.338;8.520;2023-07-09T18:18:21;29.00;60.70
75113;DHT22;63692;47.338;8.520;2023-07-09T18:20:47;28.90;60.40
75113;DHT22;63692;47.338;8.520;2023-07-09T18:23:13;28.80;60.00
75113;DHT22;63692;47.338;8.520;2023-07-09T18:25:41;28.70;59.70
75113;DHT22;63692;47.338;8.520;2023-07-09T18:28:16;28.60;59.60
75113;DHT22;63692;47.338;8.520;2023-07-09T18:30:42;28.50;58.30
75113;DHT22;63692;47.338;8.520;2023-07-09T18:33:09;28.40;59.10
75113;DHT22;63692;47.338;8.520;2023-07-09T18:35:37;28.40;59.40
75113;DHT22;63692;47.338;8.520;2023-07-09T18:38:10;28.20;63.00
75113;DHT22;63692;47.338;8.520;2023-07-09T18:40:41;28.20;61.00
75113;DHT22;63692;47.338;8.520;2023-07-09T18:43:19;28.10;63.00
75113;DHT22;63692;47.338;8.520;2023-07-09T18:45:47;28.00;67.00
75113;DHT22;63692;47.338;8.520;2023-07-09T18:48:18;27.90;68.70
75113;DHT22;63692;47.338;8.520;2023-07-09T18:50:45;27.70;68.00
75113;DHT22;63692;47.338;8.520;2023-07-09T18:53:14;27.60;73.90
75113;DHT22;63692;47.338;8.520;2023-07-09T18:55:40;27.40;73.40
75113;DHT22;63692;47.338;8.520;2023-07-09T18:58:13;27.30;70.90
75113;DHT22;63692;47.338;8.520;2023-07-09T19:00:39;27.10;74.90
75113;DHT22;63692;47.338;8.520;2023-07-09T19:03:08;27.00;76.60
75113;DHT22;63692;47.338;8.520;2023-07-09T19:05:36;26.90;75.70
75113;DHT22;63692;47.338;8.520;2023-07-09T19:10:40;26.90;78.60
75113;DHT22;63692;47.338;8.520;2023-07-09T19:13:07;26.80;81.60
75113;DHT22;63692;47.338;8.520;2023-07-09T19:15:36;26.70;75.50
75113;DHT22;63692;47.338;8.520;2023-07-09T19:18:03;26.70;74.30
75113;DHT22;63692;47.338;8.520;2023-07-09T19:20:29;26.60;77.70
75113;DHT22;63692;47.338;8.520;2023-07-09T19:22:55;26.50;74.50
75113;DHT22;63692;47.338;8.520;2023-07-09T19:25:26;26.40;73.10
75113;DHT22;63692;47.338;8.520;2023-07-09T19:27:53;26.40;75.30
75113;DHT22;63692;47.338;8.520;2023-07-09T19:30:20;26.40;73.20
75113;DHT22;63692;47.338;8.520;2023-07-09T19:32:57;26.30;72.60
75113;DHT22;63692;47.338;8.520;2023-07-09T19:35:25;26.30;72.70
75113;DHT22;63692;47.338;8.520;2023-07-09T19:37:51;26.30;72.40
75113;DHT22;63692;47.338;8.520;2023-07-09T19:40:26;26.30;72.70
75113;DHT22;63692;47.338;8.520;2023-07-09T19:42:53;26.30;76.00
75113;DHT22;63692;47.338;8.520;2023-07-09T19:45:23;26.20;74.20
75113;DHT22;63692;47.338;8.520;2023-07-09T19:47:50;26.20;73.10
75113;DHT22;63692;47.338;8.520;2023-07-09T19:50:22;26.20;74.00
75113;DHT22;63692;47.338;8.520;2023-07-09T19:52:48;26.20;72.90
75113;DHT22;63692;47.338;8.520;2023-07-09T19:55:25;26.10;73.70
75113;DHT22;63692;47.338;8.520;2023-07-09T19:57:52;26.10;74.20
75113;DHT22;63692;47.338;8.520;2023-07-09T20:00:20;26.10;74.10
75113;DHT22;63692;47.338;8.520;2023-07-09T20:02:46;26.10;75.00
75113;DHT22;63692;47.338;8.520;2023-07-09T20:05:19;26.00;76.20
